Terminal Aerodrome Forecast
Issued by NWS

Home | Current Version | Previous Version | Text Only | Print | Product List | Glossary On
Versions: 1 2 3 4 5 6 7 8 9 10 11 12 13
297
FTUS42 KTBW 290520
TAFPIE
TAF
KPIE 290520Z 2906/3006 VRB03KT P6SM FEW070 SCT090
     FM291900 31007KT P6SM SCT060 SCT120
     FM300500 35004KT P6SM FEW250=

USA.gov is the U.S. government's official web portal to all federal, state and local government web resources and services.